Time;durP1;ratioP1;P1;durP2;ratioP2;P2;SDS_P1;SDS_P2;PMS_P1;PMS_P2;Temp;Humidity;BMP_temperature;BMP_pressure;BME280_temperature;BME280_humidity;BME280_pressure;Samples;Min_cycle;Max_cycle;Signal;HPM_P1;HPM_P2
2023/06/27 00:01:27;;;;;;;6.15;1.33;;;11.30;96.50;;;;;;6234659;23;20016;-89
2023/06/27 00:03:56;;;;;;;5.70;1.35;;;11.30;96.80;;;;;;6235797;23;20078;-88
2023/06/27 00:06:21;;;;;;;6.10;1.42;;;11.30;96.80;;;;;;6210875;23;20016;-89
2023/06/27 00:08:48;;;;;;;3.75;1.25;;;11.20;97.00;;;;;;6211269;23;20156;-88
2023/06/27 00:11:14;;;;;;;5.40;1.70;;;11.20;97.00;;;;;;6211492;23;20051;-87
2023/06/27 00:13:40;;;;;;;5.63;1.60;;;11.20;97.10;;;;;;6210884;23;20016;-89
2023/06/27 00:16:12;;;;;;;4.78;1.45;;;11.20;97.30;;;;;;6210238;23;20138;-89
2023/06/27 00:18:39;;;;;;;4.32;1.20;;;11.20;97.40;;;;;;6210784;23;20421;-88
2023/06/27 00:21:05;;;;;;;2.10;1.58;;;11.10;97.60;;;;;;6236530;23;20413;-88
2023/06/27 00:23:34;;;;;;;5.65;1.70;;;11.10;97.60;;;;;;6236661;23;20026;-88
2023/06/27 00:26:03;;;;;;;5.88;1.75;;;11.00;97.70;;;;;;6211348;23;20020;-89
2023/06/27 00:28:30;;;;;;;7.10;1.92;;;11.10;98.00;;;;;;6210367;23;20028;-89
2023/06/27 00:31:01;;;;;;;7.53;1.80;;;14.80;99.30;;;;;;6210342;23;20012;-89
2023/06/27 00:33:27;;;;;;;5.97;1.67;;;10.20;97.70;;;;;;6210886;23;20070;-90
2023/06/27 00:35:55;;;;;;;4.90;2.47;;;11.80;98.40;;;;;;6209835;23;20016;-90
2023/06/27 00:38:21;;;;;;;5.88;2.03;;;11.00;98.50;;;;;;6210162;23;20140;-89
2023/06/27 00:40:47;;;;;;;6.72;2.08;;;11.00;98.30;;;;;;6213276;23;20051;-89
2023/06/27 00:43:12;;;;;;;5.93;1.88;;;11.00;98.40;;;;;;6213475;22;20024;-90
2023/06/27 00:45:38;;;;;;;7.55;2.25;;;11.00;98.60;;;;;;6235619;23;20789;-89
2023/06/27 00:48:07;;;;;;;5.70;1.63;;;9.80;98.60;;;;;;6210184;23;20077;-87
2023/06/27 00:50:35;;;;;;;4.78;1.98;;;10.90;99.90;;;;;;6209535;23;20020;-87
2023/06/27 00:53:10;;;;;;;4.30;2.20;;;12.00;99.90;;;;;;6208550;23;20115;-88
2023/06/27 00:55:42;;;;;;;8.00;2.40;;;11.30;99.80;;;;;;6208982;23;20012;-87
2023/06/27 00:58:14;;;;;;;7.32;2.22;;;11.10;99.90;;;;;;6209391;23;20012;-87
2023/06/27 01:00:40;;;;;;;6.90;2.20;;;11.20;99.60;;;;;;6208730;23;20486;-86
2023/06/27 01:03:06;;;;;;;5.88;2.20;;;11.00;99.50;;;;;;6210092;23;20048;-87
2023/06/27 01:05:32;;;;;;;11.60;3.22;;;11.00;99.40;;;;;;6210648;23;20020;-87
2023/06/27 01:08:25;;;;;;;6.95;2.10;;;11.00;99.60;;;;;;6210980;23;20099;-86
2023/06/27 01:11:05;;;;;;;8.85;2.55;;;10.90;99.60;;;;;;6217022;23;20023;-86
2023/06/27 01:13:46;;;;;;;5.28;2.08;;;11.10;99.80;;;;;;6212203;23;20023;-87
2023/06/27 01:16:13;;;;;;;3.28;1.95;;;10.90;99.70;;;;;;6210838;23;20132;-87
2023/06/27 01:18:41;;;;;;;7.68;2.60;;;10.90;99.80;;;;;;6210972;23;20048;-86
2023/06/27 01:21:18;;;;;;;7.63;2.58;;;10.90;99.90;;;;;;6210175;23;20090;-86
2023/06/27 01:23:51;;;;;;;8.52;1.88;;;11.20;99.90;;;;;;6235635;23;20106;-86
2023/06/27 01:26:17;;;;;;;6.10;1.83;;;10.90;99.90;;;;;;6234834;23;20418;-85
2023/06/27 01:28:46;;;;;;;4.93;1.80;;;10.90;99.90;;;;;;6208696;23;20058;-86
2023/06/27 01:31:35;;;;;;;9.93;2.50;;;10.80;99.90;;;;;;6233818;23;20115;-86
2023/06/27 01:34:17;;;;;;;5.78;2.50;;;12.50;99.90;;;;;;6209732;23;20016;-86
2023/06/27 01:36:54;;;;;;;7.07;2.25;;;10.70;99.90;;;;;;6209981;23;20019;-85
2023/06/27 01:39:28;;;;;;;6.40;2.40;;;11.00;99.90;;;;;;6210456;23;20016;-85
2023/06/27 01:41:59;;;;;;;7.30;2.42;;;8.70;99.90;;;;;;6234853;22;20103;-86
2023/06/27 01:44:26;;;;;;;5.45;2.10;;;10.80;99.90;;;;;;6210120;23;20026;-86
2023/06/27 01:46:52;;;;;;;5.70;2.30;;;11.20;99.90;;;;;;6208773;23;20052;-85
2023/06/27 01:49:21;;;;;;;8.10;2.75;;;10.70;99.90;;;;;;6234558;23;20020;-86
2023/06/27 01:51:50;;;;;;;5.35;2.45;;;10.40;99.90;;;;;;6209311;23;20066;-86
2023/06/27 01:54:16;;;;;;;6.07;2.30;;;12.20;99.90;;;;;;6209863;23;20048;-86
2023/06/27 01:56:42;;;;;;;5.60;2.45;;;11.40;99.90;;;;;;6234816;23;20019;-85
2023/06/27 01:59:08;;;;;;;6.32;2.70;;;11.40;99.90;;;;;;6210224;23;20027;-87
2023/06/27 02:01:34;;;;;;;5.30;2.47;;;11.00;99.90;;;;;;6210354;23;20020;-85
2023/06/27 02:04:03;;;;;;;5.68;2.50;;;11.30;99.90;;;;;;6208893;23;20019;-86
2023/06/27 02:06:29;;;;;;;7.72;2.47;;;10.80;99.90;;;;;;6209557;23;20043;-87
2023/06/27 02:08:56;;;;;;;8.35;2.22;;;11.10;99.90;;;;;;6209628;23;20038;-86
2023/06/27 02:11:22;;;;;;;4.47;2.67;;;10.70;99.90;;;;;;6233933;23;20020;-85
2023/06/27 02:13:48;;;;;;;7.40;3.38;;;10.60;99.90;;;;;;6209638;23;20517;-86
2023/06/27 02:16:14;;;;;;;5.75;2.88;;;12.40;99.90;;;;;;6208589;23;20016;-85
2023/06/27 02:18:40;;;;;;;9.45;2.90;;;10.50;99.90;;;;;;6209546;23;20012;-86
2023/06/27 02:21:06;;;;;;;6.18;2.70;;;10.90;99.90;;;;;;6209193;23;20116;-86
2023/06/27 02:23:32;;;;;;;5.15;2.78;;;10.40;99.90;;;;;;6209936;23;20027;-85
2023/06/27 02:26:02;;;;;;;4.32;2.55;;;10.50;99.90;;;;;;6209547;23;20020;-86
2023/06/27 02:28:35;;;;;;;6.00;2.90;;;11.10;99.90;;;;;;6208453;23;20023;-86
2023/06/27 02:31:01;;;;;;;10.38;3.38;;;10.40;99.90;;;;;;6209350;23;20087;-87
2023/06/27 02:33:27;;;;;;;6.30;2.97;;;10.30;99.90;;;;;;6211316;23;20048;-86
2023/06/27 02:35:53;;;;;;;7.95;2.78;;;10.80;99.90;;;;;;6210363;23;20008;-87
2023/06/27 02:38:19;;;;;;;6.30;2.92;;;10.40;99.90;;;;;;6208630;23;20018;-87
2023/06/27 02:40:44;;;;;;;8.43;2.95;;;11.70;99.90;;;;;;6208068;23;20109;-86
2023/06/27 02:43:10;;;;;;;6.97;2.88;;;10.70;99.90;;;;;;6211056;22;20107;-86
2023/06/27 02:45:38;;;;;;;9.52;3.25;;;10.40;99.90;;;;;;6210730;23;20147;-87
2023/06/27 02:48:04;;;;;;;8.13;3.35;;;10.40;99.90;;;;;;6208745;23;20479;-87
2023/06/27 02:50:30;;;;;;;6.00;2.80;;;10.30;99.90;;;;;;6236147;23;20320;-86
2023/06/27 02:52:56;;;;;;;5.88;2.97;;;10.80;99.90;;;;;;6236295;23;20012;-87
2023/06/27 02:55:22;;;;;;;6.85;3.53;;;10.60;99.90;;;;;;6209152;23;20549;-87
2023/06/27 02:57:47;;;;;;;8.07;3.50;;;10.60;99.90;;;;;;6209741;23;20016;-85
2023/06/27 03:00:14;;;;;;;7.03;2.85;;;10.40;99.90;;;;;;6211148;23;20050;-85
2023/06/27 03:02:40;;;;;;;7.78;2.90;;;10.40;99.90;;;;;;6210443;23;20019;-86
2023/06/27 03:05:05;;;;;;;7.88;2.97;;;10.30;99.90;;;;;;6210024;23;20012;-86
2023/06/27 03:07:31;;;;;;;8.13;3.47;;;10.30;99.90;;;;;;6212299;23;20046;-88
2023/06/27 03:09:57;;;;;;;9.75;3.97;;;10.30;99.90;;;;;;6211511;23;20050;-87
2023/06/27 03:12:23;;;;;;;8.45;2.65;;;10.30;99.90;;;;;;6210461;23;20020;-87
2023/06/27 03:14:49;;;;;;;7.10;2.70;;;10.30;99.90;;;;;;6210604;23;20024;-86
2023/06/27 03:17:15;;;;;;;6.18;3.13;;;10.50;99.90;;;;;;6209866;23;20337;-85
2023/06/27 03:19:41;;;;;;;4.45;3.83;;;10.40;99.90;;;;;;6210157;23;20347;-86
2023/06/27 03:22:07;;;;;;;7.13;3.17;;;10.60;99.90;;;;;;6235644;23;20020;-85
2023/06/27 03:24:33;;;;;;;7.63;3.13;;;10.30;99.90;;;;;;6212051;23;20019;-86
2023/06/27 03:26:59;;;;;;;7.82;3.05;;;10.40;99.90;;;;;;6210403;23;20101;-86
2023/06/27 03:29:24;;;;;;;6.60;3.22;;;9.10;99.90;;;;;;6212303;23;20085;-87
2023/06/27 03:31:52;;;;;;;6.57;3.38;;;10.50;99.90;;;;;;6237702;23;20316;-87
2023/06/27 03:34:18;;;;;;;4.50;3.17;;;10.80;99.90;;;;;;6210648;23;20016;-86
2023/06/27 03:36:44;;;;;;;7.43;3.35;;;11.70;99.90;;;;;;6211364;23;20034;-87
2023/06/27 03:39:10;;;;;;;8.88;3.78;;;10.80;99.90;;;;;;6237090;23;20016;-85
2023/06/27 03:41:36;;;;;;;12.35;4.40;;;10.20;99.90;;;;;;6209982;22;20031;-86
2023/06/27 03:44:02;;;;;;;11.32;3.65;;;10.40;99.90;;;;;;6211394;23;20090;-85
2023/06/27 03:46:28;;;;;;;8.65;4.15;;;10.40;99.90;;;;;;6209560;23;20012;-86
2023/06/27 03:48:57;;;;;;;8.57;3.53;;;8.10;99.90;;;;;;6236005;23;20451;-87
2023/06/27 03:51:23;;;;;;;7.10;3.92;;;10.50;99.90;;;;;;6210236;23;20024;-87
2023/06/27 03:53:49;;;;;;;9.40;3.80;;;10.60;99.90;;;;;;6234872;23;20016;-87
2023/06/27 03:56:15;;;;;;;6.60;3.78;;;12.70;99.90;;;;;;6210698;23;20022;-87
2023/06/27 03:58:41;;;;;;;8.18;4.00;;;10.70;99.90;;;;;;6235096;23;20013;-85
2023/06/27 04:01:06;;;;;;;9.32;5.05;;;10.80;99.90;;;;;;6210542;23;20016;-87
2023/06/27 04:03:32;;;;;;;8.77;4.18;;;11.30;99.90;;;;;;6210157;23;20022;-87
2023/06/27 04:05:58;;;;;;;8.00;3.92;;;11.00;99.90;;;;;;6210330;23;20451;-88
2023/06/27 04:08:24;;;;;;;6.78;4.28;;;9.70;99.90;;;;;;6208936;23;20020;-87
2023/06/27 04:10:50;;;;;;;9.27;4.10;;;11.20;99.90;;;;;;6209895;23;20023;-87
2023/06/27 04:13:16;;;;;;;6.07;3.88;;;11.30;99.90;;;;;;6210155;23;20012;-88
2023/06/27 04:15:42;;;;;;;10.48;4.70;;;11.40;99.90;;;;;;6209314;23;20016;-88
2023/06/27 04:18:08;;;;;;;9.65;3.92;;;11.90;99.90;;;;;;6210033;23;20099;-89
2023/06/27 04:20:35;;;;;;;6.07;3.88;;;12.60;99.90;;;;;;6235083;23;20024;-88
2023/06/27 04:23:05;;;;;;;8.10;4.25;;;12.50;99.90;;;;;;6234256;23;20024;-88
2023/06/27 04:25:36;;;;;;;4.40;2.63;;;13.60;99.90;;;;;;6209094;23;20406;-89
2023/06/27 04:28:09;;;;;;;7.07;3.50;;;14.20;99.90;;;;;;6209013;23;20051;-87
2023/06/27 04:30:35;;;;;;;7.00;2.67;;;15.70;99.90;;;;;;6208945;23;20052;-87
2023/06/27 04:33:03;;;;;;;6.43;2.97;;;15.30;99.90;;;;;;6207372;23;20023;-88
2023/06/27 04:35:29;;;;;;;4.25;2.22;;;16.50;99.90;;;;;;6208550;23;20047;-88
2023/06/27 04:37:56;;;;;;;6.68;1.88;;;17.20;99.80;;;;;;6207823;23;20048;-89
2023/06/27 04:40:22;;;;;;;6.07;2.10;;;17.90;98.60;;;;;;6234937;23;20086;-89
2023/06/27 04:42:48;;;;;;;6.90;2.33;;;18.50;97.10;;;;;;6233788;22;20055;-86
2023/06/27 04:45:14;;;;;;;4.60;1.73;;;19.20;95.90;;;;;;6209117;23;20412;-87
2023/06/27 04:47:40;;;;;;;4.55;1.23;;;19.80;94.40;;;;;;6209230;23;20012;-88
2023/06/27 04:50:11;;;;;;;5.95;1.88;;;19.70;93.40;;;;;;6234141;23;20016;-89
2023/06/27 04:52:36;;;;;;;6.70;1.75;;;18.90;93.30;;;;;;6209162;23;20026;-88
2023/06/27 04:55:02;;;;;;;3.90;1.60;;;18.60;93.30;;;;;;6209281;23;20059;-87
2023/06/27 04:57:28;;;;;;;6.35;2.30;;;18.20;93.00;;;;;;6233993;23;20016;-88
2023/06/27 04:59:54;;;;;;;4.68;1.92;;;18.00;93.30;;;;;;6208753;23;20020;-87
2023/06/27 05:02:19;;;;;;;6.28;1.98;;;17.80;93.40;;;;;;6210798;23;20016;-86
2023/06/27 05:04:45;;;;;;;5.05;2.22;;;17.70;93.60;;;;;;6212151;23;20030;-88
2023/06/27 05:07:11;;;;;;;2.65;1.52;;;14.90;92.90;;;;;;6212072;23;20072;-88
2023/06/27 05:09:37;;;;;;;7.63;1.63;;;18.00;93.80;;;;;;6212094;23;20070;-86
2023/06/27 05:12:03;;;;;;;8.27;3.13;;;19.40;92.50;;;;;;6210822;23;20020;-88
2023/06/27 05:14:29;;;;;;;5.70;1.63;;;20.40;90.90;;;;;;6210189;23;20055;-87
2023/06/27 05:16:55;;;;;;;5.22;2.00;;;20.40;92.10;;;;;;6210515;23;20024;-87
2023/06/27 05:19:21;;;;;;;7.00;1.90;;;19.80;91.50;;;;;;6211769;23;20039;-87
2023/06/27 05:21:46;;;;;;;4.22;1.50;;;18.50;91.40;;;;;;6210591;23;20078;-86
2023/06/27 05:24:12;;;;;;;6.90;1.60;;;19.00;92.20;;;;;;6211715;23;20780;-86
2023/06/27 05:26:38;;;;;;;6.88;1.67;;;16.00;90.70;;;;;;6237068;23;20430;-87
2023/06/27 05:29:04;;;;;;;3.50;1.20;;;19.30;92.50;;;;;;6209257;23;20020;-86
2023/06/27 05:31:29;;;;;;;8.13;1.63;;;18.80;92.10;;;;;;6209530;23;20435;-87
2023/06/27 05:33:55;;;;;;;4.97;1.98;;;18.40;91.30;;;;;;6207958;23;20475;-86
2023/06/27 05:36:21;;;;;;;6.93;1.70;;;16.70;92.10;;;;;;6207956;23;20019;-87
2023/06/27 05:38:48;;;;;;;6.05;2.03;;;18.40;91.90;;;;;;6207562;23;20015;-89
2023/06/27 05:41:17;;;;;;;4.22;1.75;;;20.90;93.40;;;;;;6240544;22;20016;-87
2023/06/27 05:43:47;;;;;;;3.45;1.73;;;18.40;92.40;;;;;;6243785;22;20023;-85
2023/06/27 05:46:13;;;;;;;6.85;1.70;;;18.40;92.40;;;;;;6242647;22;20057;-88
2023/06/27 05:48:39;;;;;;;5.07;1.50;;;15.90;92.40;;;;;;6243171;22;20019;-87
2023/06/27 05:51:05;;;;;;;5.47;1.75;;;19.60;92.80;;;;;;6242201;22;20015;-85
2023/06/27 05:53:31;;;;;;;5.30;1.08;;;21.70;91.00;;;;;;6242981;22;20072;-88
2023/06/27 05:55:56;;;;;;;3.33;0.82;;;22.90;86.90;;;;;;6242011;22;20693;-87
2023/06/27 05:58:22;;;;;;;3.63;0.93;;;24.50;81.70;;;;;;6242195;22;20015;-88
2023/06/27 06:00:48;;;;;;;5.43;1.25;;;25.60;77.00;;;;;;6242657;22;20377;-88
2023/06/27 06:03:14;;;;;;;2.50;0.60;;;26.40;74.20;;;;;;6241438;22;20019;-88
2023/06/27 06:05:40;;;;;;;3.67;0.70;;;27.50;71.40;;;;;;6241715;22;20015;-88
2023/06/27 06:08:05;;;;;;;7.45;1.27;;;28.50;67.70;;;;;;6241771;22;20019;-88
2023/06/27 06:10:31;;;;;;;4.60;0.70;;;29.30;65.00;;;;;;6241981;22;20094;-86
2023/06/27 06:12:57;;;;;;;3.92;0.60;;;30.00;63.20;;;;;;6240635;22;20090;-86
2023/06/27 06:15:23;;;;;;;4.43;0.60;;;30.70;60.90;;;;;;6240823;22;20342;-85
2023/06/27 06:17:48;;;;;;;4.90;0.63;;;31.20;59.20;;;;;;6240955;22;20022;-86
2023/06/27 06:20:14;;;;;;;4.63;0.40;;;31.70;58.00;;;;;;6241411;22;20726;-88
2023/06/27 06:22:40;;;;;;;3.80;0.50;;;32.20;56.70;;;;;;6242334;22;20015;-85
2023/06/27 06:25:07;;;;;;;4.03;0.65;;;32.70;55.50;;;;;;6240527;22;20011;-85
2023/06/27 06:27:35;;;;;;;4.68;0.60;;;33.20;54.40;;;;;;6241653;22;20015;-87
2023/06/27 06:30:01;;;;;;;4.70;0.50;;;33.60;54.90;;;;;;6241933;22;20007;-87
2023/06/27 06:32:27;;;;;;;5.47;0.75;;;34.10;52.20;;;;;;6242377;22;20026;-88
2023/06/27 06:34:53;;;;;;;2.88;1.02;;;34.30;51.80;;;;;;6244749;22;20469;-86
2023/06/27 06:37:18;;;;;;;3.22;0.35;;;34.50;50.60;;;;;;6243475;22;20462;-85
2023/06/27 06:39:44;;;;;;;4.63;0.65;;;34.70;49.90;;;;;;6242840;22;20011;-89
2023/06/27 06:42:10;;;;;;;2.13;0.30;;;34.90;50.30;;;;;;6241307;22;20372;-87
2023/06/27 06:44:36;;;;;;;2.33;0.35;;;35.00;48.90;;;;;;6242855;22;20023;-87
2023/06/27 06:47:03;;;;;;;3.88;0.35;;;35.20;48.50;;;;;;6242044;22;20086;-88
2023/06/27 06:49:29;;;;;;;3.80;0.45;;;35.60;48.40;;;;;;6242676;22;20026;-87
2023/06/27 06:51:55;;;;;;;2.60;0.40;;;35.80;47.10;;;;;;6243946;22;20015;-87
2023/06/27 06:54:20;;;;;;;3.38;0.38;;;36.00;46.00;;;;;;6270006;22;20011;-85
2023/06/27 06:56:49;;;;;;;4.32;0.50;;;36.20;45.40;;;;;;6243444;22;20011;-85
2023/06/27 06:59:23;;;;;;;2.40;0.40;;;36.40;45.00;;;;;;6242448;22;20007;-86
2023/06/27 07:01:49;;;;;;;2.95;0.35;;;36.90;46.80;;;;;;6244929;22;20015;-88
2023/06/27 07:04:18;;;;;;;5.43;0.30;;;36.80;44.20;;;;;;6270298;22;20073;-88
2023/06/27 07:06:52;;;;;;;4.65;0.50;;;36.90;44.80;;;;;;6245250;22;20015;-87
2023/06/27 07:09:18;;;;;;;2.35;0.20;;;37.60;45.60;;;;;;6270961;22;20086;-88
2023/06/27 07:11:54;;;;;;;6.03;0.47;;;37.50;43.70;;;;;;6244110;22;20388;-86
2023/06/27 07:14:24;;;;;;;2.60;0.47;;;37.40;44.70;;;;;;6247169;22;20015;-87
2023/06/27 07:16:53;;;;;;;4.22;0.47;;;37.00;42.80;;;;;;6247047;22;20015;-85
2023/06/27 07:19:19;;;;;;;3.20;0.43;;;37.40;43.70;;;;;;6272446;22;20077;-89
2023/06/27 07:21:47;;;;;;;3.08;0.40;;;37.20;43.40;;;;;;6245506;22;20023;-87
2023/06/27 07:24:13;;;;;;;5.22;0.30;;;37.00;41.50;;;;;;6248846;22;20037;-92
2023/06/27 07:26:39;;;;;;;2.05;0.13;;;36.30;43.50;;;;;;6248824;22;20015;-88
2023/06/27 07:29:05;;;;;;;1.80;0.30;;;36.30;41.70;;;;;;6246595;22;20082;-86
2023/06/27 07:31:31;;;;;;;2.85;0.30;;;35.40;41.20;;;;;;6246650;22;20050;-90
2023/06/27 07:33:57;;;;;;;2.03;0.25;;;35.00;42.40;;;;;;6247857;22;20011;-89
2023/06/27 07:36:23;;;;;;;2.55;0.32;;;34.20;43.30;;;;;;6250999;22;20330;-90
2023/06/27 07:38:49;;;;;;;5.57;0.47;;;33.80;44.90;;;;;;6251498;22;20422;-94
2023/06/27 07:41:15;;;;;;;2.17;0.22;;;33.30;43.20;;;;;;6278022;22;20099;-93
2023/06/27 07:43:42;;;;;;;2.17;0.25;;;32.80;45.40;;;;;;6251062;22;20080;-94
2023/06/27 07:46:11;;;;;;;3.53;0.20;;;32.30;47.50;;;;;;6251633;22;20019;-93
2023/06/27 07:48:37;;;;;;;2.50;0.30;;;32.70;48.90;;;;;;6249943;22;20084;-93
2023/06/27 07:51:03;;;;;;;3.47;0.30;;;32.40;47.30;;;;;;6251586;22;20015;-93
2023/06/27 07:53:32;;;;;;;2.05;0.28;;;32.40;47.30;;;;;;6256381;22;20015;-93
2023/06/27 07:56:03;;;;;;;3.00;0.30;;;32.60;45.40;;;;;;6255360;22;20397;-91
2023/06/27 07:58:31;;;;;;;2.22;0.28;;;30.30;44.30;;;;;;6251272;22;20012;-94
2023/06/27 08:00:57;;;;;;;4.97;0.50;;;32.90;47.00;;;;;;6250915;22;20019;-93
2023/06/27 08:03:24;;;;;;;3.88;0.32;;;33.40;45.70;;;;;;6253200;22;20042;-91
2023/06/27 08:05:55;;;;;;;3.63;0.63;;;34.10;43.60;;;;;;6252158;22;20051;-92
2023/06/27 08:08:29;;;;;;;4.70;0.30;;;34.50;43.00;;;;;;6279235;22;20039;-91
2023/06/27 08:10:58;;;;;;;2.95;0.30;;;35.40;42.90;;;;;;6275328;22;20266;-91
2023/06/27 08:13:27;;;;;;;3.15;0.30;;;35.40;42.10;;;;;;6252634;22;20023;-88
2023/06/27 08:15:54;;;;;;;2.20;0.20;;;35.60;43.90;;;;;;6252794;22;20025;-92
2023/06/27 08:18:23;;;;;;;4.38;0.30;;;35.60;42.90;;;;;;6275327;22;20019;-92
2023/06/27 08:20:58;;;;;;;1.85;0.40;;;35.00;40.80;;;;;;6247066;22;20015;-94
2023/06/27 08:23:24;;;;;;;1.52;0.20;;;33.50;41.40;;;;;;6245300;22;20088;-91
2023/06/27 08:25:50;;;;;;;2.80;0.20;;;34.00;42.30;;;;;;6248694;22;20541;-92
2023/06/27 08:28:16;;;;;;;3.45;0.30;;;33.60;44.40;;;;;;6251085;22;20015;-92
2023/06/27 08:30:42;;;;;;;1.40;0.17;;;32.80;45.70;;;;;;6248498;22;20112;-90
2023/06/27 08:33:18;;;;;;;1.85;0.30;;;31.70;46.90;;;;;;6249841;22;20022;-93
2023/06/27 08:35:44;;;;;;;3.40;0.43;;;31.70;44.20;;;;;;6249641;22;20015;-95
2023/06/27 08:38:16;;;;;;;2.95;0.30;;;30.90;44.30;;;;;;6252253;22;20018;-93
2023/06/27 08:40:48;;;;;;;2.85;0.52;;;30.10;45.10;;;;;;6253059;22;20109;-92
2023/06/27 08:43:15;;;;;;;2.80;0.40;;;29.90;47.50;;;;;;6218678;22;20086;-92
2023/06/27 08:45:42;;;;;;;3.22;0.57;;;29.40;48.60;;;;;;6216585;23;20023;-93
2023/06/27 08:48:09;;;;;;;1.35;0.20;;;28.90;49.20;;;;;;6217941;23;20027;-93
2023/06/27 08:50:41;;;;;;;1.65;0.28;;;28.20;48.20;;;;;;6233376;23;20016;-86
2023/06/27 08:53:20;;;;;;;4.78;0.30;;;29.70;48.80;;;;;;6205850;23;20012;-85
2023/06/27 08:56:07;;;;;;;2.50;0.20;;;29.50;49.10;;;;;;6205646;23;20023;-86
2023/06/27 08:59:19;;;;;;;3.45;0.22;;;31.80;49.60;;;;;;6210937;23;20019;-95
2023/06/27 09:01:52;;;;;;;6.28;0.40;;;28.70;48.10;;;;;;6241929;23;20058;-95
2023/06/27 09:04:27;;;;;;;6.03;0.20;;;27.20;49.20;;;;;;6217171;23;20027;-92
2023/06/27 09:06:57;;;;;;;3.95;0.20;;;24.50;50.50;;;;;;6218818;23;20016;-92
2023/06/27 09:09:27;;;;;;;4.82;0.63;;;26.50;53.90;;;;;;6218483;23;20016;-94
2023/06/27 09:12:00;;;;;;;5.50;0.90;;;25.50;53.00;;;;;;6213898;23;20020;-88
2023/06/27 09:14:27;;;;;;;5.32;0.40;;;25.40;52.40;;;;;;6213931;23;20012;-93
2023/06/27 09:16:53;;;;;;;1.77;0.20;;;28.70;56.70;;;;;;6211729;23;20023;-90
2023/06/27 09:19:23;;;;;;;3.80;0.50;;;26.30;56.40;;;;;;6210524;23;20016;-88
2023/06/27 09:21:50;;;;;;;3.17;0.20;;;26.40;54.40;;;;;;6212876;23;20016;-91
2023/06/27 09:24:31;;;;;;;5.00;0.28;;;24.30;51.60;;;;;;6212874;23;20020;-86
2023/06/27 09:27:00;;;;;;;4.65;0.47;;;28.00;52.00;;;;;;6212778;23;20069;-91
2023/06/27 09:29:36;;;;;;;4.35;0.40;;;28.70;52.20;;;;;;6211865;23;20026;-89
2023/06/27 09:32:06;;;;;;;5.03;0.22;;;29.60;50.80;;;;;;6210895;23;20023;-90
2023/06/27 09:34:36;;;;;;;4.18;0.47;;;30.70;51.50;;;;;;6210934;23;20056;-87
2023/06/27 09:37:05;;;;;;;4.13;0.90;;;32.80;50.90;;;;;;6210707;23;20043;-85
2023/06/27 09:39:41;;;;;;;;;;;;;;;;;;;;;
2023/06/27 09:42:11;;;;;;;3.88;0.43;;;32.20;48.90;;;;;;6238055;22;20020;-90
2023/06/27 09:44:37;;;;;;;2.22;0.35;;;33.50;47.70;;;;;;6211546;23;20020;-88
2023/06/27 09:47:08;;;;;;;2.17;0.30;;;33.10;48.00;;;;;;6214982;23;20016;-88
2023/06/27 09:49:42;;;;;;;3.58;0.20;;;32.90;45.60;;;;;;6212034;23;20927;-87
2023/06/27 09:52:14;;;;;;;3.58;0.10;;;29.80;43.50;;;;;;6214186;23;20016;-87
2023/06/27 09:54:49;;;;;;;2.70;0.30;;;31.50;44.40;;;;;;6213116;23;20048;-90
2023/06/27 09:57:25;;;;;;;3.42;0.30;;;31.20;46.80;;;;;;6210916;23;20507;-86
2023/06/27 09:59:59;;;;;;;2.55;0.30;;;29.30;48.60;;;;;;6210723;23;20626;-88
2023/06/27 10:02:41;;;;;;;0.80;0.10;;;31.40;48.60;;;;;;6213041;23;20459;-92
2023/06/27 10:05:08;;;;;;;5.20;0.30;;;31.60;47.00;;;;;;6215266;23;20023;-92
2023/06/27 10:11:04;;;;;;;3.90;0.30;;;28.70;46.50;;;;;;6139477;23;20056;-90
2023/06/27 10:13:57;;;;;;;1.65;0.20;;;29.10;48.90;;;;;;6098419;23;20014;-92
2023/06/27 10:17:18;;;;;;;2.28;0.40;;;27.10;47.60;;;;;;6111770;23;20021;-91
2023/06/27 10:24:21;;;;;;;2.75;0.30;;;25.10;50.50;;;;;;6052485;23;20676;-86
2023/06/27 10:27:53;;;;;;;;;;;;;;;;;;;;;
2023/06/27 10:30:46;;;;;;;2.72;0.40;;;27.30;53.60;;;;;;6097536;23;20476;-87
2023/06/27 10:41:33;;;;;;;;;;;;;;;;;;;;;
2023/06/27 10:44:44;;;;;;;4.53;0.40;;;26.50;53.40;;;;;;6145991;23;20029;-85
2023/06/27 10:47:39;;;;;;;3.05;0.28;;;26.60;53.10;;;;;;6120065;23;20075;-85
2023/06/27 10:50:39;;;;;;;2.97;0.25;;;27.90;55.90;;;;;;6086550;23;20046;-86
2023/06/27 10:53:22;;;;;;;3.67;0.22;;;28.70;52.50;;;;;;6119175;23;20025;-88
2023/06/27 10:55:55;;;;;;;2.78;0.25;;;27.60;54.30;;;;;;6119934;23;20017;-87
2023/06/27 10:58:58;;;;;;;2.05;0.20;;;26.40;53.50;;;;;;6117463;23;20032;-86
2023/06/27 11:05:08;;;;;;;2.45;0.40;;;26.40;52.80;;;;;;6151088;23;20059;-85
2023/06/27 11:07:40;;;;;;;3.88;0.20;;;25.90;54.00;;;;;;6230820;22;20015;-90
2023/06/27 11:11:01;;;;;;;5.50;0.88;;;25.50;56.80;;;;;;6228467;22;20011;-85
2023/06/27 11:14:18;;;;;;;2.30;0.30;;;23.50;53.00;;;;;;6188404;23;20071;-87
2023/06/27 11:20:44;;;;;;;3.67;0.30;;;24.30;53.50;;;;;;6110920;23;20224;-88
2023/06/27 11:23:21;;;;;;;1.98;0.20;;;25.50;55.60;;;;;;6083750;23;20090;-87
2023/06/27 11:25:59;;;;;;;2.10;0.20;;;25.40;54.80;;;;;;6085894;23;20021;-85
2023/06/27 11:28:39;;;;;;;3.95;0.40;;;25.00;58.10;;;;;;6086233;23;20027;-89
2023/06/27 11:31:05;;;;;;;2.75;0.25;;;25.50;59.30;;;;;;6111668;23;20111;-85
2023/06/27 11:37:20;;;;;;;4.40;0.40;;;23.70;53.70;;;;;;6080200;23;20078;-84
2023/06/27 11:40:32;;;;;;;;;;;;;;;;;;;;;
2023/06/27 11:43:33;;;;;;;1.23;0.20;;;26.30;56.50;;;;;;6094053;23;20484;-86
2023/06/27 11:50:15;;;;;;;5.93;0.32;;;25.60;54.40;;;;;;6126750;23;20075;-86
2023/06/27 11:53:38;;;;;;;2.00;0.20;;;24.10;53.90;;;;;;6112611;23;20017;-87
2023/06/27 11:56:13;;;;;;;4.47;0.30;;;25.70;55.00;;;;;;6111714;23;20072;-85
2023/06/27 11:58:45;;;;;;;2.00;0.32;;;25.60;58.50;;;;;;6112208;23;20018;-86
2023/06/27 12:01:16;;;;;;;4.57;0.47;;;25.20;54.90;;;;;;6178442;23;20016;-86
2023/06/27 12:03:52;;;;;;;2.28;0.28;;;26.10;56.30;;;;;;6174435;23;20017;-90
2023/06/27 12:10:13;;;;;;;5.22;0.40;;;23.90;53.60;;;;;;6170839;23;20059;-86
2023/06/27 12:12:39;;;;;;;1.73;0.20;;;23.10;55.30;;;;;;6167959;23;20099;-86
2023/06/27 12:18:46;;;;;;;3.15;1.05;;;27.90;55.80;;;;;;6299535;22;20023;-89
2023/06/27 12:21:52;;;;;;;2.00;0.25;;;25.50;57.50;;;;;;6241315;22;20019;-86
2023/06/27 12:24:57;;;;;;;;;;;;;;;;;;;;;
2023/06/27 12:27:54;;;;;;;2.97;0.22;;;24.70;54.10;;;;;;6261862;22;20054;-87
2023/06/27 12:30:23;;;;;;;3.20;0.20;;;25.00;55.60;;;;;;6232844;22;20729;-86
2023/06/27 12:33:02;;;;;;;3.67;0.45;;;25.10;54.60;;;;;;6236707;22;20023;-85
2023/06/27 12:36:32;;;;;;;6.85;0.50;;;24.60;55.60;;;;;;6235052;22;20256;-84
2023/06/27 12:43:04;;;;;;;;;;;;;;;;;;;;;
2023/06/27 12:45:42;;;;;;;3.83;0.30;;;22.80;54.70;;;;;;6226532;23;20063;-86
2023/06/27 12:48:30;;;;;;;4.15;0.20;;;24.40;55.60;;;;;;6173930;23;20659;-86
2023/06/27 12:51:03;;;;;;;3.47;0.20;;;24.20;55.40;;;;;;6174699;23;20023;-89
2023/06/27 12:54:15;;;;;;;6.15;1.58;;;24.60;57.90;;;;;;6178797;23;20016;-88
2023/06/27 12:56:59;;;;;;;4.53;0.70;;;22.40;56.40;;;;;;6082811;23;20053;-86
2023/06/27 13:00:37;;;;;;;5.93;0.30;;;24.60;56.20;;;;;;6201657;23;20581;-86
2023/06/27 13:04:00;;;;;;;5.32;0.30;;;22.80;55.20;;;;;;6174974;23;20020;-85
2023/06/27 13:10:51;;;;;;;4.45;0.68;;;22.60;55.00;;;;;;6145975;23;20025;-87
2023/06/27 13:14:06;;;;;;;3.78;0.30;;;23.10;55.50;;;;;;6050459;23;20027;-91
2023/06/27 13:16:33;;;;;;;3.55;0.50;;;22.90;55.60;;;;;;6094687;23;20014;-86
2023/06/27 13:19:02;;;;;;;4.07;0.40;;;23.60;59.10;;;;;;6117874;23;20167;-88
2023/06/27 13:21:48;;;;;;;3.40;0.20;;;24.70;57.90;;;;;;6170078;23;20573;-89
2023/06/27 13:24:15;;;;;;;4.97;0.63;;;25.00;57.30;;;;;;6180715;23;20016;-87
2023/06/27 13:26:44;;;;;;;3.28;0.40;;;24.90;58.50;;;;;;6203224;23;20087;-88
2023/06/27 13:29:10;;;;;;;2.17;0.35;;;24.80;57.60;;;;;;6205892;23;20114;-88
2023/06/27 13:32:08;;;;;;;;;;;;;;;;;;;;;
2023/06/27 13:38:40;;;;;;;2.58;0.20;;;21.70;53.70;;;;;;6144516;23;20021;-86
2023/06/27 13:41:06;;;;;;;4.03;0.40;;;24.70;57.40;;;;;;6167684;23;20433;-87
2023/06/27 13:52:02;;;;;;;3.95;0.47;;;24.50;55.10;;;;;;6172377;22;20071;-85
2023/06/27 13:54:30;;;;;;;2.33;0.50;;;24.90;56.60;;;;;;6171659;23;20125;-85
2023/06/27 13:57:15;;;;;;;;;;;;;;;;;;;;;
2023/06/27 13:59:51;;;;;;;2.92;0.20;;;25.60;57.40;;;;;;6228462;23;20110;-85
2023/06/27 14:02:17;;;;;;;2.30;0.10;;;24.80;56.00;;;;;;6203743;23;20020;-87
2023/06/27 14:04:43;;;;;;;3.17;0.30;;;24.80;58.30;;;;;;6203631;23;20019;-89
2023/06/27 14:07:15;;;;;;;5.68;0.38;;;25.50;58.50;;;;;;6209461;23;20026;-86
2023/06/27 14:17:35;;;;;;;3.05;0.40;;;24.80;54.20;;;;;;6180278;23;20016;-89
2023/06/27 14:20:23;;;;;;;2.40;0.47;;;25.20;54.60;;;;;;6111551;23;20380;-89
2023/06/27 14:26:37;;;;;;;1.80;0.20;;;25.10;54.50;;;;;;6112398;23;20068;-88
2023/06/27 14:29:04;;;;;;;2.17;0.20;;;22.70;54.00;;;;;;6119204;23;20463;-86
2023/06/27 14:31:30;;;;;;;3.33;0.20;;;24.70;54.10;;;;;;6118830;23;20658;-86